createdAt,value
2022-09-23T00:01:16.890Z,11.89
2022-09-23T00:03:49.168Z,11.88
2022-09-23T00:06:20.400Z,11.85
2022-09-23T00:08:49.621Z,11.83
2022-09-23T00:11:20.268Z,11.79
2022-09-23T00:13:49.091Z,11.77
2022-09-23T00:16:28.657Z,11.73
2022-09-23T00:18:55.784Z,11.69
2022-09-23T00:21:23.139Z,11.67
2022-09-23T00:23:50.230Z,11.63
2022-09-23T00:26:21.251Z,11.59
2022-09-23T00:28:49.248Z,11.59
2022-09-23T00:31:21.693Z,11.57
2022-09-23T00:33:53.198Z,11.56
2022-09-23T00:36:20.174Z,11.55
2022-09-23T00:38:47.049Z,11.51
2022-09-23T00:41:17.584Z,11.49
2022-09-23T00:43:47.684Z,11.48
2022-09-23T00:46:18.800Z,11.48
2022-09-23T00:48:54.728Z,11.45
2022-09-23T00:51:24.978Z,11.45
2022-09-23T00:53:52.896Z,11.45
2022-09-23T00:56:23.071Z,11.43
2022-09-23T00:58:51.189Z,11.39
2022-09-23T01:01:19.805Z,11.37
2022-09-23T01:03:46.928Z,11.35
2022-09-23T01:06:15.731Z,11.33
2022-09-23T01:08:46.698Z,11.34
2022-09-23T01:11:19.432Z,11.32
2022-09-23T01:14:03.546Z,11.32
2022-09-23T01:16:37.609Z,11.30
2022-09-23T01:19:35.896Z,11.28
2022-09-23T01:22:02.537Z,11.30
2022-09-23T01:24:46.683Z,11.27
2022-09-23T01:27:34.448Z,11.24
2022-09-23T01:30:30.352Z,11.21
2022-09-23T01:33:09.158Z,11.21
2022-09-23T01:35:55.522Z,11.20
2022-09-23T01:39:02.352Z,11.15
2022-09-23T01:41:57.963Z,11.10
2022-09-23T01:44:35.021Z,11.08
2022-09-23T01:47:18.711Z,11.05
2022-09-23T01:50:01.626Z,11.05
2022-09-23T01:52:41.806Z,11.03
2022-09-23T01:55:17.378Z,11.01
2022-09-23T01:57:50.218Z,11.02
2022-09-23T02:00:19.525Z,11.00
2022-09-23T02:02:52.508Z,11.00
2022-09-23T02:05:28.085Z,10.99
2022-09-23T02:08:03.227Z,10.96
2022-09-23T02:10:47.230Z,10.91
2022-09-23T02:13:20.701Z,10.90
2022-09-23T02:15:55.163Z,10.83
2022-09-23T02:18:24.386Z,10.77
2022-09-23T02:20:55.379Z,10.75
2022-09-23T02:23:36.244Z,10.76
2022-09-23T02:26:16.656Z,10.72
2022-09-23T02:28:43.423Z,10.74
2022-09-23T02:31:43.712Z,10.72
2022-09-23T02:34:47.908Z,10.69
2022-09-23T02:37:29.980Z,10.65
2022-09-23T02:40:11.983Z,10.63
2022-09-23T02:42:50.695Z,10.60
2022-09-23T02:45:17.711Z,10.52
2022-09-23T02:47:49.246Z,10.46
2022-09-23T02:50:16.084Z,10.42
2022-09-23T02:52:43.240Z,10.37
2022-09-23T02:55:12.198Z,10.40
2022-09-23T02:57:38.941Z,10.38
2022-09-23T03:00:06.617Z,10.37
2022-09-23T03:02:33.386Z,10.38
2022-09-23T03:05:37.775Z,10.35
2022-09-23T03:08:37.382Z,10.32
2022-09-23T03:11:13.625Z,10.29
2022-09-23T03:13:55.329Z,10.25
2022-09-23T03:16:42.816Z,10.22
2022-09-23T03:19:38.434Z,10.20
2022-09-23T03:22:27.185Z,10.16
2022-09-23T03:24:59.722Z,10.14
2022-09-23T03:27:30.065Z,10.11
2022-09-23T03:29:57.698Z,10.12
2022-09-23T03:32:28.249Z,10.13
2022-09-23T03:34:58.006Z,10.13
2022-09-23T03:37:31.803Z,10.10
2022-09-23T03:40:16.659Z,10.05
2022-09-23T03:42:43.650Z,10.08
2022-09-23T03:45:18.556Z,10.06
2022-09-23T03:47:46.122Z,10.06
2022-09-23T03:50:13.994Z,10.06
2022-09-23T03:52:40.941Z,10.04
2022-09-23T03:55:08.343Z,10.02
2022-09-23T03:57:35.879Z,10.00
2022-09-23T04:00:05.020Z,9.99
2022-09-23T04:02:32.316Z,10.01
2022-09-23T04:04:59.078Z,10.02
2022-09-23T04:07:25.760Z,10.02
2022-09-23T04:09:52.995Z,10.03
2022-09-23T04:12:19.872Z,10.03
2022-09-23T04:14:46.607Z,10.01
2022-09-23T04:17:13.404Z,10.02
2022-09-23T04:19:40.562Z,10.05
2022-09-23T04:22:08.155Z,10.05
2022-09-23T04:24:34.994Z,10.05
2022-09-23T04:27:03.193Z,10.04
2022-09-23T04:29:29.920Z,10.02
2022-09-23T04:31:57.897Z,10.01
2022-09-23T04:34:24.638Z,9.98
2022-09-23T04:36:51.343Z,9.99
2022-09-23T04:39:18.627Z,9.95
2022-09-23T04:41:45.960Z,9.94
2022-09-23T04:44:13.539Z,9.92
2022-09-23T04:46:42.042Z,9.90
2022-09-23T04:49:08.866Z,9.90
2022-09-23T04:51:35.906Z,9.89
2022-09-23T04:54:02.586Z,9.87
2022-09-23T04:56:32.802Z,9.86
2022-09-23T04:59:01.775Z,9.83
2022-09-23T05:01:31.648Z,9.82
2022-09-23T05:04:03.670Z,9.80
2022-09-23T05:06:32.316Z,9.81
2022-09-23T05:08:59.507Z,9.79
2022-09-23T05:11:28.996Z,9.81
2022-09-23T05:13:55.805Z,9.79
2022-09-23T05:16:23.812Z,9.78
2022-09-23T05:18:51.740Z,9.76
2022-09-23T05:21:24.580Z,9.74
2022-09-23T05:23:55.190Z,9.71
2022-09-23T05:26:27.966Z,9.71
2022-09-23T05:28:54.691Z,9.71
2022-09-23T05:31:24.072Z,9.68
2022-09-23T05:33:53.724Z,9.68
2022-09-23T05:36:22.016Z,9.67
2022-09-23T05:38:50.928Z,9.65
2022-09-23T05:41:19.681Z,9.66
2022-09-23T05:43:51.779Z,9.65
2022-09-23T05:46:21.264Z,9.63
2022-09-23T05:48:48.127Z,9.63
2022-09-23T05:51:17.474Z,9.62
2022-09-23T05:53:47.787Z,9.61
2022-09-23T05:56:19.714Z,9.58
2022-09-23T05:58:50.023Z,9.58
2022-09-23T06:01:21.187Z,9.57
2022-09-23T06:03:52.236Z,9.57
2022-09-23T06:06:21.829Z,9.58
2022-09-23T06:08:48.904Z,9.57
2022-09-23T06:11:15.614Z,9.56
2022-09-23T06:13:42.326Z,9.57
2022-09-23T06:16:14.175Z,9.58
2022-09-23T06:18:42.782Z,9.57
2022-09-23T06:21:12.869Z,9.58
2022-09-23T06:23:41.430Z,9.61
2022-09-23T06:26:10.720Z,9.62
2022-09-23T06:28:39.483Z,9.58
2022-09-23T06:31:17.159Z,9.58
2022-09-23T06:33:45.222Z,9.61
2022-09-23T06:36:17.470Z,9.62
2022-09-23T06:38:51.262Z,9.64
2022-09-23T06:41:21.644Z,9.64
2022-09-23T06:43:48.479Z,9.65
2022-09-23T06:46:17.224Z,9.66
2022-09-23T06:48:46.332Z,9.66
2022-09-23T06:51:21.810Z,9.68
2022-09-23T06:53:49.521Z,9.70
2022-09-23T06:56:17.875Z,9.74
2022-09-23T06:58:44.621Z,9.78
2022-09-23T07:01:16.218Z,9.79
2022-09-23T07:03:44.689Z,9.79
2022-09-23T07:06:11.811Z,9.82
2022-09-23T07:08:38.880Z,9.87
2022-09-23T07:11:07.332Z,9.94
2022-09-23T07:13:34.723Z,10.00
2022-09-23T07:16:02.357Z,10.04
2022-09-23T07:18:36.705Z,10.11
2022-09-23T07:21:15.488Z,10.14
2022-09-23T07:23:48.130Z,10.21
2022-09-23T07:26:16.306Z,10.26
2022-09-23T07:28:43.665Z,10.34
2022-09-23T07:31:17.500Z,10.37
2022-09-23T07:33:46.136Z,10.44
2022-09-23T07:36:15.092Z,10.49
2022-09-23T07:38:45.412Z,10.50
2022-09-23T07:41:15.179Z,10.58
2022-09-23T07:43:42.015Z,10.58
2022-09-23T07:46:12.187Z,10.65
2022-09-23T07:48:39.417Z,10.70
2022-09-23T07:51:35.518Z,10.70
2022-09-23T07:54:05.480Z,10.71
2022-09-23T07:56:32.276Z,10.75
2022-09-23T07:59:03.770Z,10.78
2022-09-23T08:01:34.911Z,10.79
2022-09-23T08:04:13.434Z,10.81
2022-09-23T08:06:42.571Z,10.85
2022-09-23T08:09:09.605Z,10.84
2022-09-23T08:11:41.953Z,10.87
2022-09-23T08:14:13.796Z,10.95
2022-09-23T08:16:41.636Z,11.02
2022-09-23T08:19:09.027Z,11.13
2022-09-23T08:21:39.339Z,11.15
2022-09-23T08:24:07.621Z,11.26
2022-09-23T08:26:34.789Z,11.30
2022-09-23T08:29:02.202Z,11.39
2022-09-23T08:31:28.937Z,11.50
2022-09-23T08:33:56.926Z,11.57
2022-09-23T08:36:24.880Z,11.65
2022-09-23T08:38:51.990Z,11.72
2022-09-23T08:41:58.430Z,11.81
2022-09-23T08:44:29.164Z,11.92
2022-09-23T08:47:01.742Z,12.00
2022-09-23T08:49:42.080Z,12.11
2022-09-23T08:52:19.083Z,12.14
2022-09-23T08:54:45.851Z,12.14
2022-09-23T08:57:30.303Z,12.15
2022-09-23T08:59:58.058Z,12.30
2022-09-23T09:02:25.163Z,12.46
2022-09-23T09:04:59.844Z,12.54
2022-09-23T09:07:38.240Z,12.49
2022-09-23T09:10:10.066Z,12.51
2022-09-23T09:12:54.322Z,12.46
2022-09-23T09:15:25.187Z,12.52
2022-09-23T09:18:07.983Z,12.51
2022-09-23T09:20:35.251Z,12.49
2022-09-23T09:23:20.205Z,12.51
2022-09-23T09:25:50.891Z,12.68
2022-09-23T09:28:27.918Z,13.07
2022-09-23T09:31:00.032Z,13.61
2022-09-23T09:33:37.067Z,13.79
2022-09-23T09:36:20.794Z,13.87
2022-09-23T09:38:47.652Z,14.12
2022-09-23T09:41:21.429Z,14.90
2022-09-23T09:43:53.534Z,15.21
2022-09-23T09:46:29.421Z,15.19
2022-09-23T09:49:02.617Z,15.27
2022-09-23T09:51:29.527Z,15.10
2022-09-23T09:54:17.247Z,15.06
2022-09-23T09:56:45.255Z,14.89
2022-09-23T09:59:18.495Z,15.09
2022-09-23T10:01:46.252Z,15.76
2022-09-23T10:04:35.172Z,16.22
2022-09-23T10:07:16.300Z,16.14
2022-09-23T10:09:49.827Z,16.25
2022-09-23T10:12:18.917Z,16.76
2022-09-23T10:14:51.463Z,16.53
2022-09-23T10:17:22.894Z,16.04
2022-09-23T10:20:00.454Z,15.52
2022-09-23T10:22:36.521Z,15.04
2022-09-23T10:25:10.029Z,14.87
2022-09-23T10:27:37.455Z,15.18
2022-09-23T10:30:21.825Z,15.52
2022-09-23T10:32:50.249Z,15.71
2022-09-23T10:35:21.980Z,16.25
2022-09-23T10:37:52.707Z,16.58
2022-09-23T10:41:10.981Z,16.88
2022-09-23T10:44:37.939Z,17.45
2022-09-23T10:47:34.236Z,18.28
2022-09-23T10:50:17.340Z,18.42
2022-09-23T10:53:00.229Z,18.51
2022-09-23T10:55:45.403Z,18.68
2022-09-23T10:58:27.869Z,18.56
2022-09-23T11:01:20.467Z,18.31
2022-09-23T11:04:10.102Z,17.95
2022-09-23T11:07:07.367Z,17.45
2022-09-23T11:09:41.292Z,17.09
2022-09-23T11:12:41.354Z,16.77
2022-09-23T11:15:20.753Z,16.49
2022-09-23T11:18:08.053Z,16.21
2022-09-23T11:20:40.509Z,15.98
2022-09-23T11:23:26.724Z,15.73
2022-09-23T11:26:14.628Z,15.66
2022-09-23T11:29:04.398Z,15.61
2022-09-23T11:32:14.398Z,15.56
2022-09-23T11:35:03.229Z,15.67
2022-09-23T11:37:36.288Z,15.76
2022-09-23T11:40:15.635Z,15.85
2022-09-23T11:42:59.492Z,15.85
2022-09-23T11:45:32.459Z,15.93
2022-09-23T11:48:09.098Z,16.07
2022-09-23T11:50:47.501Z,16.13
2022-09-23T11:53:22.948Z,16.19
2022-09-23T11:56:34.267Z,16.14
2022-09-23T11:59:07.351Z,16.09
2022-09-23T12:01:38.549Z,16.04
2022-09-23T12:04:21.046Z,15.99
2022-09-23T12:06:52.698Z,15.98
2022-09-23T12:09:47.129Z,15.93
2022-09-23T12:12:27.246Z,15.77
2022-09-23T12:15:11.677Z,15.81
2022-09-23T12:18:13.560Z,15.93
2022-09-23T12:21:01.810Z,15.95
2022-09-23T12:23:47.363Z,15.85
2022-09-23T12:26:19.526Z,15.76
2022-09-23T12:28:50.041Z,15.73
2022-09-23T12:31:30.770Z,15.84
2022-09-23T12:34:20.003Z,15.88
2022-09-23T12:36:47.152Z,15.79
2022-09-23T12:39:23.643Z,15.74
2022-09-23T12:41:58.534Z,15.70
2022-09-23T12:44:31.699Z,15.89
2022-09-23T12:47:14.730Z,16.27
2022-09-23T12:49:42.896Z,16.44
2022-09-23T12:52:18.893Z,16.57
2022-09-23T12:54:56.043Z,16.54
2022-09-23T12:57:34.870Z,16.38
2022-09-23T13:00:12.619Z,16.31
2022-09-23T13:02:41.145Z,16.21
2022-09-23T13:05:26.425Z,16.14
2022-09-23T13:08:03.044Z,16.03
2022-09-23T13:10:34.034Z,15.91
2022-09-23T13:13:02.468Z,15.79
2022-09-23T13:15:31.226Z,15.67
2022-09-23T13:18:22.705Z,15.60
2022-09-23T13:20:51.965Z,15.82
2022-09-23T13:23:25.895Z,16.18
2022-09-23T13:25:57.363Z,16.49
2022-09-23T13:28:36.885Z,16.77
2022-09-23T13:31:06.494Z,16.96
2022-09-23T13:33:44.012Z,16.97
2022-09-23T13:36:14.530Z,17.00
2022-09-23T13:38:41.664Z,17.23
2022-09-23T13:41:23.178Z,17.46
2022-09-23T13:43:59.154Z,17.75
2022-09-23T13:46:39.926Z,17.97
2022-09-23T13:49:24.688Z,18.22
2022-09-23T13:51:56.645Z,18.27
2022-09-23T13:54:28.932Z,18.10
2022-09-23T13:56:57.044Z,18.18
2022-09-23T13:59:30.388Z,18.14
2022-09-23T14:02:15.632Z,18.30
2022-09-23T14:04:42.956Z,18.48
2022-09-23T14:07:12.582Z,18.52
2022-09-23T14:09:47.267Z,18.52
2022-09-23T14:12:15.132Z,18.75
2022-09-23T14:14:43.511Z,19.08
2022-09-23T14:17:18.251Z,19.35
2022-09-23T14:19:45.563Z,19.53
2022-09-23T14:22:26.319Z,19.79
2022-09-23T14:24:55.858Z,19.99
2022-09-23T14:27:31.299Z,20.13
2022-09-23T14:30:00.245Z,20.18
2022-09-23T14:32:29.273Z,20.18
2022-09-23T14:35:03.731Z,20.03
2022-09-23T14:38:08.568Z,19.73
2022-09-23T14:40:38.642Z,19.32
2022-09-23T14:43:29.176Z,18.88
2022-09-23T14:45:58.235Z,18.55
2022-09-23T14:48:35.609Z,18.17
2022-09-23T14:51:10.870Z,17.82
2022-09-23T14:53:42.601Z,17.55
2022-09-23T14:56:17.262Z,17.34
2022-09-23T14:59:23.472Z,17.10
2022-09-23T15:01:50.195Z,16.88
2022-09-23T15:04:30.534Z,16.71
2022-09-23T15:07:05.992Z,16.47
2022-09-23T15:09:40.785Z,16.31
2022-09-23T15:12:13.988Z,16.20
2022-09-23T15:14:46.550Z,16.05
2022-09-23T15:17:22.636Z,15.93
2022-09-23T15:19:56.957Z,15.85
2022-09-23T15:22:27.063Z,15.79
2022-09-23T15:25:08.381Z,15.75
2022-09-23T15:27:35.486Z,15.74
2022-09-23T15:30:19.106Z,15.77
2022-09-23T15:32:46.620Z,15.72
2022-09-23T15:35:16.425Z,15.71
2022-09-23T15:37:44.836Z,15.78
2022-09-23T15:40:21.502Z,15.83
2022-09-23T15:42:52.408Z,15.87
2022-09-23T15:45:31.690Z,15.91
2022-09-23T15:48:02.020Z,15.93
2022-09-23T15:50:28.948Z,15.97
2022-09-23T15:52:55.724Z,15.94
2022-09-23T15:55:23.046Z,15.73
2022-09-23T15:57:50.692Z,15.51
2022-09-23T16:00:17.616Z,15.46
2022-09-23T16:02:46.972Z,15.32
2022-09-23T16:05:27.494Z,15.14
2022-09-23T16:07:54.174Z,15.01
2022-09-23T16:10:22.601Z,14.93
2022-09-23T16:12:51.848Z,14.82
2022-09-23T16:15:20.972Z,14.74
2022-09-23T16:17:47.720Z,14.72
2022-09-23T16:20:18.181Z,14.71
2022-09-23T16:23:06.902Z,14.64
2022-09-23T16:25:36.674Z,14.67
2022-09-23T16:28:04.683Z,14.69
2022-09-23T16:30:33.973Z,14.65
2022-09-23T16:33:01.783Z,14.55
2022-09-23T16:35:30.919Z,14.52
2022-09-23T16:37:57.611Z,14.51
2022-09-23T16:40:25.497Z,14.56
2022-09-23T16:42:54.963Z,14.56
2022-09-23T16:45:23.392Z,14.58
2022-09-23T16:47:51.957Z,14.62
2022-09-23T16:50:25.129Z,14.65
2022-09-23T16:52:57.645Z,14.67
2022-09-23T16:55:27.507Z,14.65
2022-09-23T16:57:54.683Z,14.64
2022-09-23T17:00:40.969Z,14.65
2022-09-23T17:03:26.376Z,14.64
2022-09-23T17:05:54.525Z,14.70
2022-09-23T17:08:21.174Z,14.73
2022-09-23T17:10:57.205Z,14.79
2022-09-23T17:13:28.324Z,14.86
2022-09-23T17:15:55.665Z,14.90
2022-09-23T17:18:22.539Z,14.89
2022-09-23T17:21:06.515Z,14.84
2022-09-23T17:23:35.662Z,14.83
2022-09-23T17:26:03.076Z,14.82
2022-09-23T17:28:29.780Z,14.76
2022-09-23T17:31:01.637Z,14.72
2022-09-23T17:33:31.486Z,14.71
2022-09-23T17:35:59.981Z,14.64
2022-09-23T17:38:29.367Z,14.58
2022-09-23T17:40:59.235Z,14.53
2022-09-23T17:43:26.050Z,14.49
2022-09-23T17:45:54.712Z,14.48
2022-09-23T17:48:24.778Z,14.44
2022-09-23T17:50:56.025Z,14.38
2022-09-23T17:53:23.221Z,14.36
2022-09-23T17:56:01.674Z,14.36
2022-09-23T17:58:31.799Z,14.32
2022-09-23T18:00:59.211Z,14.28
2022-09-23T18:03:28.943Z,14.26
2022-09-23T18:06:13.555Z,14.23
2022-09-23T18:08:42.320Z,14.23
2022-09-23T18:11:13.505Z,14.23
2022-09-23T18:13:40.333Z,14.17
2022-09-23T18:16:07.235Z,14.14
2022-09-23T18:18:33.985Z,14.11
2022-09-23T18:21:04.882Z,14.07
2022-09-23T18:23:31.567Z,14.02
2022-09-23T18:25:58.295Z,13.96
2022-09-23T18:28:24.980Z,13.88
2022-09-23T18:30:58.574Z,13.81
2022-09-23T18:33:27.631Z,13.77
2022-09-23T18:35:54.421Z,13.75
2022-09-23T18:38:21.196Z,13.75
2022-09-23T18:40:57.095Z,13.74
2022-09-23T18:43:29.516Z,13.73
2022-09-23T18:46:15.495Z,13.68
2022-09-23T18:49:01.830Z,13.67
2022-09-23T18:51:29.669Z,13.62
2022-09-23T18:54:00.312Z,13.58
2022-09-23T18:56:29.754Z,13.58
2022-09-23T18:58:56.806Z,13.57
2022-09-23T19:01:24.128Z,13.55
2022-09-23T19:03:58.353Z,13.56
2022-09-23T19:06:25.555Z,13.53
2022-09-23T19:08:54.661Z,13.51
2022-09-23T19:11:25.253Z,13.49
2022-09-23T19:13:56.115Z,13.49
2022-09-23T19:16:24.338Z,13.51
2022-09-23T19:18:51.810Z,13.52
2022-09-23T19:21:21.480Z,13.52
2022-09-23T19:23:54.053Z,13.54
2022-09-23T19:26:23.855Z,13.56
2022-09-23T19:28:52.911Z,13.54
2022-09-23T19:31:23.074Z,13.52
2022-09-23T19:33:58.224Z,13.52
2022-09-23T19:36:31.005Z,13.51
2022-09-23T19:39:00.025Z,13.50
2022-09-23T19:41:31.835Z,13.51
2022-09-23T19:44:02.451Z,13.50
2022-09-23T19:46:34.057Z,13.49
2022-09-23T19:49:01.082Z,13.47
2022-09-23T19:51:28.380Z,13.48
2022-09-23T19:53:55.105Z,13.45
2022-09-23T19:56:22.205Z,13.43
2022-09-23T19:58:54.415Z,13.41
2022-09-23T20:01:26.372Z,13.37
2022-09-23T20:03:53.626Z,13.36
2022-09-23T20:06:20.821Z,13.31
2022-09-23T20:08:48.831Z,13.29
2022-09-23T20:11:23.709Z,13.27
2022-09-23T20:14:01.820Z,13.24
2022-09-23T20:16:32.500Z,13.24
2022-09-23T20:19:00.425Z,13.21
2022-09-23T20:21:30.790Z,13.19
2022-09-23T20:23:58.660Z,13.15
2022-09-23T20:26:43.934Z,13.12
2022-09-23T20:29:11.366Z,13.11
2022-09-23T20:31:40.515Z,13.10
2022-09-23T20:34:08.375Z,13.09
2022-09-23T20:36:36.223Z,13.07
2022-09-23T20:39:06.028Z,13.03
2022-09-23T20:41:37.198Z,13.04
2022-09-23T20:44:06.463Z,13.01
2022-09-23T20:46:34.120Z,13.00
2022-09-23T20:49:02.107Z,12.97
2022-09-23T20:51:33.359Z,12.93
2022-09-23T20:54:00.794Z,12.89
2022-09-23T20:56:29.273Z,12.86
2022-09-23T20:59:03.841Z,12.80
2022-09-23T21:01:34.915Z,12.79
2022-09-23T21:04:04.912Z,12.76
2022-09-23T21:06:35.250Z,12.74
2022-09-23T21:09:02.482Z,12.73
2022-09-23T21:11:29.365Z,12.72
2022-09-23T21:13:56.829Z,12.69
2022-09-23T21:16:24.608Z,12.63
2022-09-23T21:18:52.015Z,12.57
2022-09-23T21:21:19.845Z,12.48
2022-09-23T21:23:47.559Z,12.37
2022-09-23T21:26:19.315Z,12.29
2022-09-23T21:28:51.253Z,12.20
2022-09-23T21:31:23.805Z,12.13
2022-09-23T21:33:56.625Z,12.05
2022-09-23T21:36:24.836Z,12.02
2022-09-23T21:38:55.603Z,11.97
2022-09-23T21:41:23.758Z,11.94
2022-09-23T21:43:50.861Z,11.90
2022-09-23T21:46:20.599Z,11.86
2022-09-23T21:48:52.967Z,11.83
2022-09-23T21:51:21.011Z,11.78
2022-09-23T21:53:47.897Z,11.72
2022-09-23T21:56:20.780Z,11.66
2022-09-23T21:58:48.409Z,11.63
2022-09-23T22:01:17.917Z,11.58
2022-09-23T22:03:50.058Z,11.50
2022-09-23T22:06:21.649Z,11.48
2022-09-23T22:08:55.153Z,11.46
2022-09-23T22:11:42.758Z,11.42
2022-09-23T22:14:12.897Z,11.37
2022-09-23T22:16:41.766Z,11.34
2022-09-23T22:19:10.627Z,11.32
2022-09-23T22:21:39.044Z,11.32
2022-09-23T22:24:08.134Z,11.28
2022-09-23T22:26:37.126Z,11.23
2022-09-23T22:29:23.347Z,11.21
2022-09-23T22:32:08.745Z,11.16
2022-09-23T22:34:49.635Z,11.13
2022-09-23T22:37:21.428Z,11.11
2022-09-23T22:39:48.214Z,11.10
2022-09-23T22:42:14.923Z,11.06
2022-09-23T22:44:41.949Z,11.06
2022-09-23T22:47:09.790Z,11.04
2022-09-23T22:49:36.581Z,11.06
2022-09-23T22:52:04.163Z,11.03
2022-09-23T22:54:33.944Z,10.99
2022-09-23T22:57:04.595Z,11.01
2022-09-23T22:59:31.516Z,11.02
2022-09-23T23:02:00.673Z,11.00
2022-09-23T23:04:28.647Z,10.96
2022-09-23T23:06:56.132Z,10.96
2022-09-23T23:09:25.065Z,10.92
2022-09-23T23:11:53.019Z,10.90
2022-09-23T23:14:20.152Z,10.84
2022-09-23T23:16:47.538Z,10.82
2022-09-23T23:19:17.350Z,10.78
2022-09-23T23:21:45.498Z,10.77
2022-09-23T23:24:31.261Z,10.75
2022-09-23T23:26:58.126Z,10.75
2022-09-23T23:29:24.846Z,10.70
2022-09-23T23:31:51.884Z,10.67
2022-09-23T23:34:21.013Z,10.67
2022-09-23T23:36:54.974Z,10.69
2022-09-23T23:39:24.441Z,10.69
2022-09-23T23:41:55.762Z,10.69
2022-09-23T23:44:24.981Z,10.72
2022-09-23T23:46:52.423Z,10.68
2022-09-23T23:49:19.585Z,10.69
2022-09-23T23:51:46.541Z,10.69
2022-09-23T23:54:15.323Z,10.71
2022-09-23T23:56:42.367Z,10.71
2022-09-23T23:59:09.196Z,10.72
